createdAt,value
2023-06-04T00:13:28.930Z,1016.36
2023-06-04T00:41:46.210Z,1016.27
2023-06-04T01:10:06.943Z,1016.23
2023-06-04T01:38:27.672Z,1016.32
2023-06-04T02:06:51.987Z,1016.31
2023-06-04T02:35:12.261Z,1016.34
2023-06-04T03:03:31.280Z,1016.57
2023-06-04T03:31:53.404Z,1016.72
2023-06-04T04:00:19.027Z,1016.88
2023-06-04T04:28:49.269Z,1017.02
2023-06-04T04:57:35.567Z,1017.08
2023-06-04T05:25:57.402Z,1017.39
2023-06-04T05:54:02.269Z,1017.45
2023-06-04T06:22:28.944Z,1017.66
2023-06-04T06:51:33.904Z,1017.91
2023-06-04T07:19:59.585Z,1018.13
2023-06-04T07:49:10.554Z,1018.19
2023-06-04T08:18:05.372Z,1018.35
2023-06-04T08:47:18.542Z,1018.43
2023-06-04T09:16:22.389Z,1018.41
2023-06-04T09:45:49.529Z,1018.32
2023-06-04T10:15:18.765Z,1018.21
2023-06-04T10:44:48.251Z,1017.9
2023-06-04T11:13:44.354Z,1017.89
2023-06-04T11:42:58.489Z,1017.68
2023-06-04T12:11:55.312Z,1017.37
2023-06-04T12:40:46.608Z,1017.23
2023-06-04T13:09:51.383Z,1016.98
2023-06-04T13:38:50.280Z,1016.84
2023-06-04T14:07:53.649Z,1016.73
2023-06-04T14:36:52.132Z,1016.52
2023-06-04T15:05:49.142Z,1016.3
2023-06-04T15:34:47.049Z,1016.37
2023-06-04T16:03:42.530Z,1016.57
2023-06-04T16:32:41.277Z,1016.3
2023-06-04T17:01:47.252Z,1016.22
2023-06-04T17:30:42.904Z,1016.18
2023-06-04T17:58:59.765Z,1016.3
2023-06-04T18:27:19.629Z,1016.44
2023-06-04T18:55:41.898Z,1016.59
2023-06-04T19:23:56.976Z,1016.67
2023-06-04T19:52:14.848Z,1016.95
2023-06-04T20:21:12.602Z,1017.29
2023-06-04T20:50:15.113Z,1017.24
2023-06-04T21:19:18.565Z,1017.39
2023-06-04T21:48:26.201Z,1017.49
2023-06-04T22:17:29.484Z,1017.74
2023-06-04T22:46:34.971Z,1017.63
2023-06-04T23:15:27.141Z,1017.51
2023-06-04T23:44:21.493Z,1017.4
